Time;durP1;ratioP1;P1;durP2;ratioP2;P2;SDS_P1;SDS_P2;PMS_P1;PMS_P2;Temp;Humidity;BMP_temperature;BMP_pressure;BME280_temperature;BME280_humidity;BME280_pressure;Samples;Min_cycle;Max_cycle;Signal;HPM_P1;HPM_P2
2022/07/10 00:00:00;;;;;;;0.10;0.10;;;;;;;21.99;52.90;102311.16;5140539;27;20072;-39
2022/07/10 00:02:26;;;;;;;0.10;0.10;;;;;;;21.98;52.73;102295.63;5140166;27;20070;-38
2022/07/10 00:04:52;;;;;;;0.10;0.10;;;;;;;21.99;52.74;102296.44;5140712;27;20389;-39
2022/07/10 00:07:18;;;;;;;0.10;0.10;;;;;;;21.98;52.82;102300.34;5142896;27;20047;-38
2022/07/10 00:09:43;;;;;;;0.10;0.10;;;;;;;21.98;52.69;102298.38;5142372;27;20051;-38
2022/07/10 00:12:09;;;;;;;0.10;0.10;;;;;;;21.99;52.68;102299.22;5143145;27;20055;-38
2022/07/10 00:14:34;;;;;;;0.10;0.10;;;;;;;22.00;52.82;102298.09;5141792;27;20084;-38
2022/07/10 00:17:00;;;;;;;0.10;0.10;;;;;;;21.98;52.96;102295.63;5140204;27;20043;-39
2022/07/10 00:19:26;;;;;;;0.20;0.20;;;;;;;22.00;52.79;102298.09;5145562;27;20393;-38
2022/07/10 00:21:52;;;;;;;0.10;0.10;;;;;;;21.98;52.95;102294.78;5140508;27;20050;-37
2022/07/10 00:24:17;;;;;;;0.10;0.10;;;;;;;21.99;52.78;102296.44;5146648;27;20057;-38
2022/07/10 00:26:43;;;;;;;0.10;0.10;;;;;;;22.00;52.79;102298.09;5145498;27;20374;-39
2022/07/10 00:29:09;;;;;;;0.13;0.13;;;;;;;21.99;52.87;102300.06;5141950;27;20123;-38
2022/07/10 00:31:34;;;;;;;0.10;0.10;;;;;;;21.97;52.78;102295.84;5141060;27;20038;-38
2022/07/10 00:34:00;;;;;;;0.10;0.10;;;;;;;21.99;52.92;102297.28;5138941;27;20049;-39
2022/07/10 00:36:26;;;;;;;0.10;0.10;;;;;;;22.00;52.77;102301.72;5144825;27;20051;-39
2022/07/10 00:38:51;;;;;;;0.10;0.10;;;;;;;21.99;52.75;102291.72;5145754;27;20051;-38
2022/07/10 00:41:17;;;;;;;0.10;0.10;;;;;;;21.98;52.83;102294.78;5140621;27;20039;-37
2022/07/10 00:44:00;;;;;;;0.10;0.10;;;;;;;21.99;52.81;102290.91;5123729;27;20047;-37
2022/07/10 00:46:27;;;;;;;0.10;0.10;;;;;;;21.98;52.85;102292.84;5123855;27;20142;-39
2022/07/10 00:48:53;;;;;;;0.10;0.10;;;;;;;21.97;52.78;102288.38;5141702;27;20095;-38
2022/07/10 00:51:21;;;;;;;0.10;0.10;;;;;;;21.99;52.80;102293.66;5144973;27;20085;-38
2022/07/10 00:53:48;;;;;;;0.10;0.10;;;;;;;21.98;52.76;102287.28;5142546;27;20123;-38
2022/07/10 00:56:19;;;;;;;0.10;0.10;;;;;;;21.99;52.79;102293.66;5127021;27;20499;-38
2022/07/10 00:58:46;;;;;;;0.10;0.10;;;;;;;21.97;52.80;102293.91;5143762;27;20070;-39
2022/07/10 01:01:12;;;;;;;0.10;0.10;;;;;;;21.99;52.79;102282.56;5124810;27;20081;-38
2022/07/10 01:03:38;;;;;;;0.10;0.10;;;;;;;21.98;52.78;102280.91;5127251;27;20074;-38
2022/07/10 01:06:04;;;;;;;0.10;0.10;;;;;;;21.99;52.84;102283.41;5124689;27;20051;-38
2022/07/10 01:08:30;;;;;;;0.10;0.10;;;;;;;21.99;52.81;102283.41;5146601;27;20439;-39
2022/07/10 01:10:55;;;;;;;0.10;0.10;;;;;;;22.00;52.84;102278.69;5143806;27;20465;-37
2022/07/10 01:13:21;;;;;;;0.10;0.10;;;;;;;21.98;52.63;102270.66;5141281;27;20102;-37
2022/07/10 01:15:47;;;;;;;0.10;0.10;;;;;;;21.99;52.83;102277.03;5121661;27;20046;-38
2022/07/10 01:18:14;;;;;;;0.10;0.10;;;;;;;21.99;52.82;102271.47;5123565;27;20121;-37
2022/07/10 01:20:40;;;;;;;0.10;0.10;;;;;;;22.00;52.75;102262.03;5143801;27;20036;-39
2022/07/10 01:23:06;;;;;;;0.10;0.10;;;;;;;21.99;52.81;102252.06;5144092;27;20148;-39
2022/07/10 01:25:32;;;;;;;0.10;0.10;;;;;;;21.99;52.87;102258.44;5140882;27;20125;-39
2022/07/10 01:27:58;;;;;;;0.10;0.10;;;;;;;22.00;52.81;102245.41;5110002;27;20046;-39
2022/07/10 01:30:25;;;;;;;0.10;0.10;;;;;;;22.00;52.76;102250.94;5125605;27;20437;-37
2022/07/10 01:32:52;;;;;;;0.10;0.10;;;;;;;21.98;52.64;102244.84;5124440;27;20078;-39
2022/07/10 01:35:18;;;;;;;0.10;0.10;;;;;;;22.00;52.82;102245.41;5143212;27;20078;-37
2022/07/10 01:37:44;;;;;;;0.10;0.10;;;;;;;21.98;52.78;102242.06;5122250;27;20118;-38
2022/07/10 01:40:10;;;;;;;0.10;0.10;;;;;;;21.97;52.82;102246.75;5140221;27;20785;-37
2022/07/10 01:42:37;;;;;;;0.10;0.10;;;;;;;21.99;52.75;102239.03;5143580;27;20457;-38
2022/07/10 01:45:06;;;;;;;0.10;0.10;;;;;;;22.00;52.72;102250.94;5141327;27;20074;-36
2022/07/10 01:47:32;;;;;;;0.10;0.10;;;;;;;21.98;52.79;102242.91;5132381;27;20039;-38
2022/07/10 01:49:58;;;;;;;0.10;0.10;;;;;;;21.99;52.69;102241.81;5139696;27;20072;-37
2022/07/10 01:52:23;;;;;;;0.10;0.10;;;;;;;21.99;52.73;102240.97;5123297;27;20046;-39
2022/07/10 01:54:49;;;;;;;0.10;0.10;;;;;;;21.99;52.82;102243.75;5143474;27;20050;-38
2022/07/10 01:57:15;;;;;;;0.10;0.10;;;;;;;21.99;52.82;102236.25;5123775;27;20047;-38
2022/07/10 01:59:41;;;;;;;0.10;0.10;;;;;;;21.97;52.80;102241.22;5126890;27;20043;-37
2022/07/10 02:02:07;;;;;;;0.10;0.10;;;;;;;21.99;52.80;102232.66;5126104;27;20095;-39
2022/07/10 02:04:40;;;;;;;0.10;0.10;;;;;;;21.97;52.88;102224.56;5143374;27;20046;-38
2022/07/10 02:07:07;;;;;;;0.10;0.10;;;;;;;21.99;52.73;102235.41;5143239;27;20067;-39
2022/07/10 02:09:33;;;;;;;0.10;0.10;;;;;;;21.98;52.97;102234.59;5125502;27;20130;-38
2022/07/10 02:11:59;;;;;;;0.10;0.10;;;;;;;21.99;52.57;102229.88;5138419;27;20500;-38
2022/07/10 02:14:24;;;;;;;0.10;0.10;;;;;;;21.98;52.79;102226.28;5124098;27;20057;-38
2022/07/10 02:16:50;;;;;;;0.10;0.10;;;;;;;21.99;52.77;102224.31;5139926;27;20043;-39
2022/07/10 02:19:16;;;;;;;0.10;0.10;;;;;;;21.98;52.81;102220.72;5144751;27;20047;-38
2022/07/10 02:21:41;;;;;;;0.10;0.10;;;;;;;21.96;52.82;102222.91;5142030;27;20047;-39
2022/07/10 02:24:07;;;;;;;0.10;0.10;;;;;;;21.98;52.94;102214.34;5142395;27;20047;-38
2022/07/10 02:26:33;;;;;;;0.10;0.10;;;;;;;21.97;52.50;102210.69;5141375;27;20375;-38
2022/07/10 02:28:58;;;;;;;0.10;0.10;;;;;;;21.98;52.69;102212.41;5142540;27;20042;-38
2022/07/10 02:31:24;;;;;;;0.10;0.10;;;;;;;21.97;52.78;102207.09;5142138;27;20116;-38
2022/07/10 02:33:50;;;;;;;0.10;0.10;;;;;;;21.96;53.00;102211.81;5137195;27;20047;-35
2022/07/10 02:36:15;;;;;;;0.10;0.10;;;;;;;21.97;52.90;102212.66;5141923;27;20046;-38
2022/07/10 02:38:41;;;;;;;0.10;0.10;;;;;;;21.97;52.72;102212.66;5141593;27;20047;-38
2022/07/10 02:41:07;;;;;;;0.10;0.10;;;;;;;21.98;52.81;102206.03;5139037;27;20047;-38
2022/07/10 02:43:33;;;;;;;0.10;0.10;;;;;;;21.98;52.67;102206.84;5138166;27;20051;-37
2022/07/10 02:45:58;;;;;;;0.10;0.10;;;;;;;22.00;52.69;102220.44;5137680;27;20047;-38
2022/07/10 02:48:24;;;;;;;0.10;0.10;;;;;;;21.99;52.70;102216.84;5144810;27;20034;-36
2022/07/10 02:50:50;;;;;;;0.10;0.10;;;;;;;21.98;52.69;102217.13;5144003;27;20039;-37
2022/07/10 02:53:15;;;;;;;0.10;0.10;;;;;;;21.98;52.82;102225.44;5144860;27;20487;-38
2022/07/10 02:55:41;;;;;;;0.10;0.10;;;;;;;21.97;52.88;102224.56;5142241;27;20039;-38
2022/07/10 02:58:09;;;;;;;0.10;0.10;;;;;;;21.99;52.77;102225.16;5143128;27;20042;-38
2022/07/10 03:00:35;;;;;;;0.10;0.10;;;;;;;21.99;52.72;102216.00;5140736;27;20499;-38
2022/07/10 03:03:01;;;;;;;0.10;0.10;;;;;;;21.98;52.79;102222.66;5138336;27;20472;-38
2022/07/10 03:05:27;;;;;;;0.10;0.10;;;;;;;21.97;52.76;102213.47;5142489;27;20082;-38
2022/07/10 03:07:53;;;;;;;0.10;0.10;;;;;;;21.97;52.45;102212.66;5138159;27;20479;-38
2022/07/10 03:10:18;;;;;;;0.10;0.10;;;;;;;21.97;52.76;102219.03;5140524;27;20047;-37
2022/07/10 03:12:44;;;;;;;0.10;0.10;;;;;;;21.98;52.77;102217.13;5143671;27;20131;-37
2022/07/10 03:15:10;;;;;;;0.10;0.10;;;;;;;21.98;52.66;102222.66;5142523;27;20043;-37
2022/07/10 03:17:36;;;;;;;0.10;0.10;;;;;;;21.99;52.78;102224.31;5144206;27;20464;-38
2022/07/10 03:20:02;;;;;;;0.10;0.10;;;;;;;21.99;52.63;102227.94;5141101;27;20096;-38
2022/07/10 03:22:28;;;;;;;0.10;0.10;;;;;;;21.99;52.69;102227.09;5124524;27;20051;-38
2022/07/10 03:24:54;;;;;;;0.10;0.10;;;;;;;21.98;52.77;102228.22;5136785;27;20133;-38
2022/07/10 03:27:20;;;;;;;0.10;0.10;;;;;;;21.98;52.71;102223.50;5147895;27;20079;-36
2022/07/10 03:29:46;;;;;;;0.10;0.10;;;;;;;21.98;52.67;102222.66;5142695;27;20042;-37
2022/07/10 03:32:11;;;;;;;0.10;0.10;;;;;;;22.00;52.67;102225.97;5136274;27;20075;-37
2022/07/10 03:34:37;;;;;;;0.10;0.10;;;;;;;21.98;52.72;102222.66;5139451;27;20155;-38
2022/07/10 03:37:03;;;;;;;0.10;0.10;;;;;;;22.01;52.67;102219.31;5138105;27;20035;-38
2022/07/10 03:39:29;;;;;;;0.10;0.10;;;;;;;21.98;52.69;102219.88;5139198;27;20453;-37
2022/07/10 03:41:54;;;;;;;0.10;0.10;;;;;;;21.98;52.74;102223.50;5145726;27;20046;-36
2022/07/10 03:44:20;;;;;;;0.10;0.10;;;;;;;21.97;52.73;102223.75;5137053;27;20047;-38
2022/07/10 03:46:46;;;;;;;0.10;0.10;;;;;;;21.97;52.63;102223.75;5141467;27;20050;-38
2022/07/10 03:49:11;;;;;;;0.10;0.10;;;;;;;21.98;52.66;102217.13;5140705;27;20043;-37
2022/07/10 03:51:37;;;;;;;0.10;0.10;;;;;;;21.97;52.73;102213.47;5142447;27;20039;-37
2022/07/10 03:54:03;;;;;;;0.10;0.10;;;;;;;21.98;52.63;102219.88;5147049;27;20047;-37
2022/07/10 03:59:14;;;;;;;0.10;0.10;;;;;;;21.96;52.74;102217.38;5130278;27;20223;-38
2022/07/10 04:01:40;;;;;;;0.10;0.10;;;;;;;21.97;52.82;102224.56;5147586;27;20042;-38
2022/07/10 04:04:05;;;;;;;0.10;0.10;;;;;;;21.96;52.81;102217.38;5143466;27;20607;-38
2022/07/10 04:06:31;;;;;;;0.10;0.10;;;;;;;21.97;52.67;102210.69;5139889;27;20412;-38
2022/07/10 04:08:57;;;;;;;0.10;0.10;;;;;;;21.97;52.65;102216.25;5142366;27;20568;-37
2022/07/10 04:11:23;;;;;;;0.10;0.10;;;;;;;21.99;52.54;102216.00;5148447;27;20051;-38
2022/07/10 04:13:48;;;;;;;0.10;0.10;;;;;;;21.97;52.69;102221.78;5147516;27;20460;-37
2022/07/10 04:16:14;;;;;;;0.10;0.10;;;;;;;21.97;52.86;102218.19;5141031;27;20047;-38
2022/07/10 04:18:40;;;;;;;0.10;0.10;;;;;;;21.98;52.67;102222.66;5138225;27;20042;-37
2022/07/10 04:21:07;;;;;;;0.10;0.10;;;;;;;21.97;52.73;102224.56;5147793;27;20467;-37
2022/07/10 04:23:33;;;;;;;0.10;0.10;;;;;;;21.96;52.80;102211.81;5145829;27;20092;-37
2022/07/10 04:25:59;;;;;;;0.10;0.10;;;;;;;21.96;52.74;102211.81;5144104;27;20078;-36
2022/07/10 04:28:25;;;;;;;0.10;0.10;;;;;;;21.98;52.67;102222.66;5121906;27;20066;-37
2022/07/10 04:30:51;;;;;;;0.10;0.10;;;;;;;21.95;52.74;102221.25;5147716;27;20400;-38
2022/07/10 04:33:16;;;;;;;0.10;0.10;;;;;;;21.97;52.78;102224.56;5143171;27;20083;-37
2022/07/10 04:35:42;;;;;;;0.10;0.10;;;;;;;21.98;52.63;102225.44;5125562;27;20050;-37
2022/07/10 04:38:08;;;;;;;0.10;0.10;;;;;;;21.97;52.67;102224.56;5143953;27;20061;-37
2022/07/10 04:40:33;;;;;;;0.10;0.10;;;;;;;21.99;52.79;102227.09;5139319;27;20397;-37
2022/07/10 04:42:59;;;;;;;0.10;0.10;;;;;;;21.97;52.70;102229.28;5126346;27;20055;-37
2022/07/10 04:45:25;;;;;;;0.10;0.10;;;;;;;21.97;52.74;102227.34;5143119;27;20047;-39
2022/07/10 04:47:51;;;;;;;0.10;0.10;;;;;;;21.97;52.62;102224.56;5126633;27;20047;-37
2022/07/10 04:50:16;;;;;;;0.10;0.10;;;;;;;21.97;52.67;102224.56;5142446;27;20043;-37
2022/07/10 04:52:42;;;;;;;0.10;0.10;;;;;;;21.95;52.69;102229.56;5143713;27;20039;-37
2022/07/10 04:55:08;;;;;;;0.10;0.10;;;;;;;21.98;52.56;102226.28;5142893;27;20397;-39
2022/07/10 04:57:33;;;;;;;0.10;0.10;;;;;;;21.98;52.76;102226.28;5139027;27;20050;-38
2022/07/10 04:59:59;;;;;;;0.10;0.10;;;;;;;21.96;52.61;102222.91;5143700;27;20057;-37
2022/07/10 05:02:25;;;;;;;0.10;0.10;;;;;;;21.98;52.67;102226.28;5145846;27;20410;-37
2022/07/10 05:04:51;;;;;;;0.10;0.10;;;;;;;21.98;52.62;102223.50;5121806;27;20039;-38
2022/07/10 05:07:16;;;;;;;0.10;0.10;;;;;;;21.99;52.64;102227.09;5124517;27;20047;-36
2022/07/10 05:09:42;;;;;;;0.10;0.10;;;;;;;21.96;52.67;102225.69;5141633;27;20043;-37
2022/07/10 05:12:08;;;;;;;0.10;0.10;;;;;;;21.98;52.58;102231.81;5142740;27;20041;-37
2022/07/10 05:14:33;;;;;;;0.10;0.10;;;;;;;21.98;52.83;102223.50;5140024;27;20072;-38
2022/07/10 05:16:59;;;;;;;0.10;0.10;;;;;;;21.97;52.59;102224.56;5145890;27;20047;-38
2022/07/10 05:19:25;;;;;;;0.10;0.10;;;;;;;21.97;52.65;102229.28;5145341;27;20397;-37
2022/07/10 05:21:50;;;;;;;0.10;0.10;;;;;;;21.98;52.60;102229.03;5146627;27;20042;-37
2022/07/10 05:24:16;;;;;;;0.10;0.10;;;;;;;21.96;52.69;102225.69;5145085;27;20156;-37
2022/07/10 05:26:41;;;;;;;0.10;0.10;;;;;;;21.96;52.76;102227.63;5142917;27;20038;-38
2022/07/10 05:29:07;;;;;;;0.10;0.10;;;;;;;21.97;52.62;102226.50;5139569;27;20138;-39
2022/07/10 05:31:33;;;;;;;0.13;0.13;;;;;;;21.97;52.71;102229.28;5143075;27;20042;-39
2022/07/10 05:33:59;;;;;;;0.10;0.10;;;;;;;21.97;52.62;102232.91;5144898;27;20053;-37
2022/07/10 05:36:25;;;;;;;0.10;0.10;;;;;;;21.98;52.62;102242.06;5108742;27;20042;-38
2022/07/10 05:38:50;;;;;;;0.10;0.10;;;;;;;21.96;52.79;102239.56;5140322;27;20153;-38
2022/07/10 05:41:16;;;;;;;0.10;0.10;;;;;;;21.97;52.67;102244.00;5142576;27;20035;-37
2022/07/10 05:43:42;;;;;;;0.10;0.10;;;;;;;21.97;52.66;102234.84;5142489;27;20104;-37
2022/07/10 05:46:07;;;;;;;0.10;0.10;;;;;;;21.97;52.69;102241.22;5144115;27;20465;-36
2022/07/10 05:48:33;;;;;;;0.10;0.10;;;;;;;21.98;52.39;102242.06;5138248;27;20039;-39
2022/07/10 05:50:59;;;;;;;0.10;0.10;;;;;;;21.98;52.78;102240.13;5139497;27;20043;-37
2022/07/10 05:53:44;;;;;;;0.10;0.10;;;;;;;21.96;52.64;102241.50;5130050;27;20066;-38
2022/07/10 05:56:10;;;;;;;0.10;0.10;;;;;;;21.96;52.64;102241.50;5141374;27;20389;-38
2022/07/10 05:58:36;;;;;;;0.10;0.10;;;;;;;21.98;52.62;102254.00;5148426;27;20043;-38
2022/07/10 06:01:02;;;;;;;0.10;0.10;;;;;;;21.96;52.57;102244.28;5141316;27;20039;-38
2022/07/10 06:03:28;;;;;;;0.10;0.10;;;;;;;21.99;52.58;102246.50;5142254;27;20488;-38
2022/07/10 06:05:54;;;;;;;0.10;0.10;;;;;;;21.97;52.56;102244.00;5137727;27;20542;-36
2022/07/10 06:08:20;;;;;;;0.10;0.10;;;;;;;21.97;52.54;102246.75;5142834;27;20038;-38
2022/07/10 06:10:45;;;;;;;0.10;0.10;;;;;;;21.96;52.70;102245.09;5141467;27;20035;-37
2022/07/10 06:13:11;;;;;;;0.10;0.10;;;;;;;21.97;52.58;102245.94;5143200;27;20207;-37
2022/07/10 06:15:37;;;;;;;0.10;0.10;;;;;;;21.97;52.67;102248.72;5127004;27;20085;-37
2022/07/10 06:18:03;;;;;;;0.10;0.10;;;;;;;21.97;52.73;102244.00;5144937;27;20045;-38
2022/07/10 06:20:30;;;;;;;0.20;0.20;;;;;;;21.97;52.59;102241.22;5145877;27;20074;-38
2022/07/10 06:22:57;;;;;;;0.10;0.10;;;;;;;21.97;52.63;102237.59;5146247;27;20129;-37
2022/07/10 06:25:23;;;;;;;0.10;0.10;;;;;;;21.96;52.58;102236.78;5143379;27;20485;-38
2022/07/10 06:27:48;;;;;;;0.10;0.10;;;;;;;21.96;52.67;102249.81;5123599;27;20053;-39
2022/07/10 06:30:14;;;;;;;0.10;0.10;;;;;;;21.96;52.65;102244.28;5142696;27;20035;-37
2022/07/10 06:32:40;;;;;;;0.10;0.10;;;;;;;21.95;52.55;102254.53;5131262;27;20053;-37
2022/07/10 06:35:07;;;;;;;0.10;0.10;;;;;;;21.97;52.57;102252.31;5143446;27;20045;-37
2022/07/10 06:37:33;;;;;;;0.10;0.10;;;;;;;21.96;52.58;102247.03;5127596;27;20488;-37
2022/07/10 06:39:58;;;;;;;0.10;0.10;;;;;;;21.95;52.71;102250.94;5122398;27;20559;-38
2022/07/10 06:42:24;;;;;;;0.10;0.10;;;;;;;21.97;52.72;102251.47;5138371;27;20061;-38
2022/07/10 06:44:50;;;;;;;0.10;0.10;;;;;;;21.97;52.57;102246.75;5141737;27;20477;-38
2022/07/10 06:50:07;;;;;;;0.10;0.10;;;;;;;21.95;52.57;102248.16;5119926;27;20168;-37
2022/07/10 06:52:33;;;;;;;0.10;0.10;;;;;;;21.95;52.64;102256.47;5125488;27;20082;-38
2022/07/10 06:54:59;;;;;;;0.10;0.10;;;;;;;21.97;52.74;102243.16;5139544;27;20050;-38
2022/07/10 06:57:25;;;;;;;0.10;0.10;;;;;;;21.95;52.56;102253.69;5124902;27;20135;-38
2022/07/10 06:59:51;;;;;;;0.10;0.10;;;;;;;21.96;52.63;102241.50;5139570;27;20046;-38
2022/07/10 07:02:18;;;;;;;0.10;0.10;;;;;;;21.95;52.59;102254.53;5145219;27;20046;-37
2022/07/10 07:04:45;;;;;;;0.10;0.10;;;;;;;21.95;52.66;102254.53;5142080;27;20042;-35
2022/07/10 07:07:12;;;;;;;0.10;0.10;;;;;;;21.95;52.59;102250.94;5139724;27;20081;-38
2022/07/10 07:09:38;;;;;;;0.10;0.10;;;;;;;21.97;52.64;102259.81;5142284;27;20047;-39
2022/07/10 07:12:04;;;;;;;0.10;0.10;;;;;;;21.95;52.62;102254.53;5109468;27;20524;-38
2022/07/10 07:14:30;;;;;;;0.10;0.10;;;;;;;21.95;52.60;102251.75;5122702;27;20079;-38
2022/07/10 07:17:05;;;;;;;0.10;0.10;;;;;;;21.94;52.53;102247.31;5137156;27;20151;-38
2022/07/10 07:23:09;;;;;;;0.10;0.10;;;;;;;21.94;52.58;102246.50;5124458;27;20075;-37
2022/07/10 07:25:06;;;;;;;0.10;0.10;;;;;;;21.96;52.54;102256.19;5118150;27;20087;-38
2022/07/10 07:27:33;;;;;;;0.10;0.10;;;;;;;21.97;52.54;102257.03;5139842;27;20078;-37
2022/07/10 07:30:04;;;;;;;0.10;0.10;;;;;;;21.98;52.64;102256.78;5139696;27;20483;-38
2022/07/10 07:32:30;;;;;;;0.10;0.10;;;;;;;21.96;52.51;102258.97;5142713;27;20085;-38
2022/07/10 07:34:55;;;;;;;0.10;0.10;;;;;;;21.94;52.67;102263.13;5137496;27;20098;-38
2022/07/10 07:37:21;;;;;;;0.10;0.10;;;;;;;21.96;52.67;102261.75;5136241;27;20209;-38
2022/07/10 07:39:47;;;;;;;0.10;0.10;;;;;;;21.96;52.57;102264.50;5141844;27;20035;-38
2022/07/10 07:42:12;;;;;;;0.10;0.10;;;;;;;21.96;52.84;102266.47;5137425;27;20490;-38
2022/07/10 07:44:38;;;;;;;0.10;0.10;;;;;;;21.99;52.52;102268.72;5137192;27;20046;-39
2022/07/10 07:47:03;;;;;;;0.10;0.10;;;;;;;21.96;52.46;102266.47;5136011;27;20042;-39
2022/07/10 07:49:29;;;;;;;0.10;0.10;;;;;;;21.97;52.53;102262.56;5141615;27;20051;-38
2022/07/10 07:51:55;;;;;;;0.10;0.10;;;;;;;21.98;52.47;102267.03;5143555;27;20409;-36
2022/07/10 07:54:20;;;;;;;0.10;0.10;;;;;;;21.97;52.61;102266.19;5139011;27;20054;-37
2022/07/10 07:56:46;;;;;;;0.10;0.10;;;;;;;21.98;52.57;102264.28;5146735;27;20053;-37
2022/07/10 07:59:12;;;;;;;0.13;0.13;;;;;;;21.96;52.47;102261.75;5138504;27;20046;-37
2022/07/10 08:01:39;;;;;;;0.10;0.10;;;;;;;21.98;52.50;102261.50;5139110;27;20071;-38
2022/07/10 08:04:05;;;;;;;0.10;0.10;;;;;;;21.97;52.44;102263.41;5139614;27;20466;-37
2022/07/10 08:06:34;;;;;;;0.10;0.10;;;;;;;21.98;52.56;102264.28;5142236;27;20050;-38
2022/07/10 08:09:00;;;;;;;0.10;0.10;;;;;;;21.96;52.56;102264.50;5138930;27;20485;-38
2022/07/10 08:11:26;;;;;;;0.10;0.10;;;;;;;21.95;52.39;102262.03;5139634;27;20039;-37
2022/07/10 08:13:51;;;;;;;0.10;0.10;;;;;;;21.95;52.49;102260.06;5142426;27;20055;-36
2022/07/10 08:16:17;;;;;;;0.10;0.10;;;;;;;21.95;52.59;102256.47;5139041;27;20039;-38
2022/07/10 08:18:42;;;;;;;0.10;0.10;;;;;;;21.94;52.56;102263.97;5145073;27;20057;-38
2022/07/10 08:21:09;;;;;;;0.10;0.10;;;;;;;21.94;52.61;102257.59;5140750;27;20179;-38
2022/07/10 08:23:35;;;;;;;0.10;0.10;;;;;;;21.97;52.46;102268.94;5139121;27;20038;-38
2022/07/10 08:26:01;;;;;;;0.10;0.10;;;;;;;21.97;52.38;102263.41;5141596;27;20043;-36
2022/07/10 08:28:26;;;;;;;0.10;0.10;;;;;;;21.95;52.46;102271.19;5140170;27;20035;-37
2022/07/10 08:30:52;;;;;;;0.10;0.10;;;;;;;21.96;52.48;102263.69;5138366;27;20046;-37
2022/07/10 08:33:18;;;;;;;0.10;0.10;;;;;;;21.95;52.54;102265.63;5143143;27;20385;-37
2022/07/10 08:35:43;;;;;;;0.10;0.10;;;;;;;21.92;52.65;102260.59;5142373;27;20043;-37
2022/07/10 08:38:09;;;;;;;0.10;0.10;;;;;;;21.92;52.61;102262.53;5143293;27;20499;-37
2022/07/10 08:40:36;;;;;;;0.10;0.10;;;;;;;21.91;52.60;102261.72;5138790;27;20066;-38
2022/07/10 08:43:02;;;;;;;0.10;0.10;;;;;;;21.94;52.44;102252.88;5144797;27;20067;-37
2022/07/10 08:45:31;;;;;;;0.10;0.10;;;;;;;21.95;52.47;102251.75;5142307;27;20382;-38
2022/07/10 08:47:59;;;;;;;0.10;0.10;;;;;;;21.95;52.47;102257.31;5139632;27;20098;-38
2022/07/10 08:50:25;;;;;;;;;;;;;;;21.95;52.63;102253.69;5145916;27;20149;-38
2022/07/10 08:52:55;;;;;;;0.10;0.10;;;;;;;21.94;52.51;102255.63;5146584;27;20005;-37
2022/07/10 08:55:24;;;;;;;0.10;0.10;;;;;;;21.94;52.61;102258.41;5146626;27;20137;-37
2022/07/10 08:57:50;;;;;;;0.10;0.10;;;;;;;21.94;52.61;102254.81;5143617;27;20063;-38
2022/07/10 09:00:16;;;;;;;0.10;0.10;;;;;;;21.93;52.64;102253.13;5142596;27;20071;-37
2022/07/10 09:02:42;;;;;;;0.10;0.10;;;;;;;21.93;52.61;102251.19;5146146;27;20069;-39
2022/07/10 09:05:08;;;;;;;0.10;0.10;;;;;;;21.93;52.58;102255.88;5139590;27;20421;-38
2022/07/10 09:07:36;;;;;;;0.10;0.10;;;;;;;21.94;52.51;102257.59;5142243;27;20084;-39
2022/07/10 09:10:06;;;;;;;0.10;0.10;;;;;;;21.95;52.49;102256.47;5144298;27;20126;-38
2022/07/10 09:12:50;;;;;;;0.10;0.10;;;;;;;21.94;52.58;102255.63;5141030;27;20437;-37
2022/07/10 09:15:17;;;;;;;0.10;0.10;;;;;;;21.96;52.49;102255.38;5120680;27;20097;-37
2022/07/10 09:18:02;;;;;;;0.10;0.10;;;;;;;21.95;52.47;102251.75;5122272;27;20130;-38
2022/07/10 09:20:30;;;;;;;0.10;0.10;;;;;;;21.94;52.56;102252.88;5124676;27;20038;-38
2022/07/10 09:22:58;;;;;;;0.10;0.10;;;;;;;21.94;52.64;102254.81;5127922;27;20128;-38
2022/07/10 09:25:32;;;;;;;0.10;0.10;;;;;;;21.95;52.57;102248.97;5140841;27;20070;-38
2022/07/10 09:27:59;;;;;;;0.10;0.10;;;;;;;21.95;52.43;102251.75;5132728;27;20429;-38
2022/07/10 09:30:38;;;;;;;0.20;0.20;;;;;;;21.93;52.60;102253.13;5123369;27;20071;-38
2022/07/10 09:33:25;;;;;;;0.10;0.10;;;;;;;21.96;52.48;102247.03;5143588;27;20050;-39
2022/07/10 09:36:08;;;;;;;0.10;0.10;;;;;;;21.97;52.49;102243.16;5145711;27;20103;-38
2022/07/10 09:38:51;;;;;;;0.10;0.10;;;;;;;21.96;52.40;102245.09;5123972;27;20060;-38
2022/07/10 09:41:26;;;;;;;0.10;0.10;;;;;;;21.96;52.56;102252.59;5126898;27;20091;-38
2022/07/10 09:46:37;;;;;;;0.10;0.10;;;;;;;21.97;52.58;102248.72;5172456;27;20128;-40
2022/07/10 09:49:06;;;;;;;;;;;;;;;21.96;52.40;102247.88;5156612;27;20066;-38
2022/07/10 09:51:34;;;;;;;0.10;0.10;;;;;;;21.95;52.55;102248.97;5137246;27;19919;-38
2022/07/10 09:54:02;;;;;;;0.10;0.10;;;;;;;21.94;52.63;102244.53;5162685;27;20093;-38
2022/07/10 09:56:32;;;;;;;0.10;0.10;;;;;;;21.95;52.54;102250.94;5135015;27;20057;-38
2022/07/10 09:59:00;;;;;;;0.10;0.10;;;;;;;21.95;52.44;102246.22;5141040;27;20081;-38
2022/07/10 10:01:27;;;;;;;0.10;0.10;;;;;;;21.97;52.47;102249.53;5142244;27;20130;-39
2022/07/10 10:03:53;;;;;;;0.10;0.10;;;;;;;21.97;52.48;102237.59;5158598;27;20281;-38
2022/07/10 10:06:19;;;;;;;0.10;0.10;;;;;;;21.96;52.54;102238.72;5164211;27;20047;-38
2022/07/10 10:09:05;;;;;;;0.10;0.10;;;;;;;21.96;52.58;102238.72;5163718;27;20041;-37
2022/07/10 10:11:32;;;;;;;0.10;0.10;;;;;;;21.96;52.43;102230.41;5164083;27;20082;-39
2022/07/10 10:13:58;;;;;;;0.20;0.20;;;;;;;21.95;52.40;102229.56;5158547;27;20084;-37
2022/07/10 10:16:25;;;;;;;0.10;0.10;;;;;;;21.95;52.49;102232.34;5142546;27;20042;-38
2022/07/10 10:21:37;;;;;;;0.10;0.10;;;;;;;21.97;52.59;102212.66;5149844;27;20089;-38
2022/07/10 10:24:03;;;;;;;0.10;0.10;;;;;;;21.96;52.42;102217.38;5164829;27;20433;-38
2022/07/10 10:26:29;;;;;;;0.10;0.10;;;;;;;21.97;52.46;102210.69;5160747;27;20050;-38
2022/07/10 10:28:57;;;;;;;0.10;0.10;;;;;;;21.96;52.42;102217.38;5160616;27;20126;-39
2022/07/10 10:31:24;;;;;;;0.10;0.10;;;;;;;21.96;52.41;102209.03;5141202;27;20082;-38
2022/07/10 10:33:55;;;;;;;0.10;0.10;;;;;;;21.96;52.48;102202.66;5164631;27;20038;-38
2022/07/10 10:39:19;;;;;;;0.10;0.10;;;;;;;21.97;52.63;102201.56;5163799;27;20444;-37
2022/07/10 10:41:54;;;;;;;0.10;0.10;;;;;;;21.94;52.56;102199.34;5142531;27;20039;-38
2022/07/10 10:44:21;;;;;;;0.10;0.10;;;;;;;21.96;52.53;102206.28;5164813;27;20054;-38
2022/07/10 10:46:56;;;;;;;0.10;0.10;;;;;;;21.96;52.39;102208.22;5144613;27;20066;-38
2022/07/10 10:49:24;;;;;;;0.10;0.10;;;;;;;21.95;52.51;102204.59;5167206;27;20167;-37
2022/07/10 10:51:58;;;;;;;0.10;0.10;;;;;;;21.97;52.38;102205.16;5164301;27;20494;-38
2022/07/10 10:54:25;;;;;;;0.10;0.10;;;;;;;21.96;52.47;102202.66;5164535;27;20038;-38
2022/07/10 10:57:11;;;;;;;0.10;0.10;;;;;;;21.96;52.39;102203.50;5163927;27;20093;-39
2022/07/10 10:59:46;;;;;;;0.10;0.10;;;;;;;21.94;52.50;102204.88;5131193;27;20460;-36
2022/07/10 11:02:33;;;;;;;0.10;0.10;;;;;;;21.96;52.40;102206.28;5146102;27;20085;-38
2022/07/10 11:07:58;;;;;;;0.10;0.10;;;;;;;21.96;52.48;102191.56;5177941;27;20573;-38
2022/07/10 11:10:35;;;;;;;0.10;0.10;;;;;;;21.96;52.50;102191.56;5167052;27;20531;-39
2022/07/10 11:13:12;;;;;;;0.10;0.10;;;;;;;21.97;52.54;102198.78;5131971;27;20125;-37
2022/07/10 11:15:41;;;;;;;0.10;0.10;;;;;;;21.96;52.32;102186.84;5163677;27;20066;-38
2022/07/10 11:18:09;;;;;;;0.10;0.10;;;;;;;21.96;52.39;102183.25;5164470;27;20074;-39
2022/07/10 11:20:37;;;;;;;0.10;0.10;;;;;;;21.95;52.49;102184.34;5127036;27;20461;-39
2022/07/10 11:23:17;;;;;;;0.10;0.10;;;;;;;21.94;52.56;102188.25;5145594;27;20045;-39
2022/07/10 11:26:07;;;;;;;0.10;0.10;;;;;;;21.96;52.50;102186.84;5145112;27;20081;-38
2022/07/10 11:28:58;;;;;;;0.10;0.10;;;;;;;21.95;52.56;102181.59;5150722;27;20476;-39
2022/07/10 11:31:25;;;;;;;0.10;0.10;;;;;;;21.95;52.39;102184.34;5147239;27;20038;-39
2022/07/10 11:33:54;;;;;;;0.10;0.10;;;;;;;21.94;52.46;102182.69;5165950;27;20043;-38
2022/07/10 11:36:25;;;;;;;;;;;;;;;21.92;52.59;102177.41;5162671;27;20125;-38
2022/07/10 11:39:04;;;;;;;0.10;0.10;;;;;;;21.94;52.48;102179.91;5144605;27;19958;-38
2022/07/10 11:41:30;;;;;;;0.10;0.10;;;;;;;21.93;52.44;102178.22;5139588;27;20066;-38
2022/07/10 11:43:57;;;;;;;0.10;0.10;;;;;;;21.94;52.57;102168.81;5159773;27;20495;-39
2022/07/10 11:46:25;;;;;;;0.10;0.10;;;;;;;21.95;52.47;102165.78;5153452;27;20177;-37